TAF Text Data
IDs:
Format:
Raw Decoded Include METAR

Data at: 2256 UTC 23 Oct 2019

Region: TOP
KATL 232201Z 2322/2424 04004KT P6SM SKC
  FM241000 07006KT P6SM FEW250
  FM241700 11008KT P6SM FEW250


KBOS 232006Z 2320/2424 28011KT P6SM FEW060
  FM240600 26007KT P6SM SKC
  FM241400 23010KT P6SM FEW250
  FM241700 21010G20KT P6SM FEW150


KBWI 232043Z 2321/2424 28012G17KT P6SM FEW060
  FM232200 28006KT P6SM SKC
  FM241600 19004KT P6SM FEW250


KCLE 232057Z 2321/2424 21013KT P6SM SCT120
  FM240500 22015KT P6SM BKN120 WS020/24050KT
  FM241500 27012KT P6SM BKN045


KCLT 232158Z 2322/2424 36003KT P6SM FEW250
  FM232300 03003KT P6SM SKC
  FM241400 05004KT P6SM FEW250
  FM241700 10004KT P6SM SCT250


KCVG 232106Z 2321/2424 20012KT P6SM FEW250
  FM232300 19009KT P6SM SCT150
  FM241400 22007KT P6SM SCT100
  FM242100 28005KT P6SM BKN120
  FM242300 33004KT P6SM BKN120


KDCA 232043Z 2321/2424 30007KT P6SM FEW060
  FM240100 30004KT P6SM SKC
  FM241600 19004KT P6SM SKC


KDEN 232256Z 2323/2424 35015G28KT P6SM SCT020 BKN040 OVC100
  TEMPO 2323/2324 3SM -SHRASN OVC012
  FM240000 03014G20KT 2SM -SHSN BR BKN010 OVC020
  TEMPO 2400/2403 3/4SM -SN BR OVC005
  FM240400 03012KT 2SM -SN BR SCT005 OVC010
  FM240700 04009KT 4SM -SN BR SCT006 OVC012
  FM241000 36008KT P6SM BKN015 OVC025
  FM241600 02007KT P6SM SCT015 BKN030
  FM241900 35007KT P6SM FEW030


KDFW 232050Z 2321/2424 18018G28KT P6SM SKC
  FM240000 16014KT P6SM SCT250
  FM241400 16012KT P6SM VCSH BKN018
  FM241900 36014KT 5SM SHRA VCTS OVC015CB


KDTW 232104Z 2321/2424 23013G20KT P6SM SCT060
  FM240000 20010KT P6SM BKN060
  FM240900 21015KT P6SM OVC035
  FM241300 26009KT P6SM OVC020


KEWR 231936Z 2320/2424 28012G20KT P6SM SKC
  FM232100 27011KT P6SM FEW250
  FM240400 28006KT P6SM FEW250
  FM240900 VRB05KT P6SM FEW250
  FM241500 22007KT P6SM FEW250
  FM242100 21008KT P6SM SKC


KFLL 232050Z 2321/2424 12010KT P6SM VCSH FEW025 SCT040
  FM240000 09005KT P6SM FEW025 SCT050
  FM241400 09015KT P6SM VCSH SCT030 SCT050


KIAD 232043Z 2321/2424 28011KT P6SM FEW070
  FM232200 29006KT P6SM SKC
  FM241600 19004KT P6SM SKC


KIAH 232107Z 2321/2424 12017KT P6SM FEW060
  FM240300 13005KT P6SM SKC
  FM241000 11006KT P6SM SCT025
  FM241500 12010KT P6SM SCT030
  FM241800 08010KT P6SM SCT030


KJFK 231936Z 2320/2424 28012G20KT P6SM SKC
  FM232100 28012KT P6SM FEW250
  FM240400 28008KT P6SM FEW250
  FM240900 VRB05KT P6SM FEW250
  FM241500 22007KT P6SM SKC
  FM242100 20009KT P6SM SKC


KLAS 232050Z 2321/2424 03010G16KT P6SM FEW250
  FM232300 03008KT P6SM SKC
  FM240100 01010KT P6SM SKC
  FM241600 01012G20KT P6SM SKC


KLAX 232103Z 2321/2424 27008KT P6SM FEW010
  FM240400 VRB03KT P6SM SKC
  FM241300 09006KT P6SM SKC
  FM242100 26007KT P6SM SKC


KLGA 231936Z 2320/2424 28013G21KT P6SM SKC
  FM232100 27011KT P6SM FEW250
  FM240400 28007KT P6SM FEW250
  FM240900 VRB05KT P6SM FEW250
  FM241500 23006KT P6SM SKC
  FM242100 21008KT P6SM SKC


KMCO 232058Z 2321/2424 07010KT P6SM BKN040 BKN250
  FM240100 02007KT P6SM SCT025 BKN035
  FM241500 07011KT P6SM VCSH BKN040


KMDW 232102Z 2321/2424 19009KT P6SM BKN080
  FM240000 02005KT P6SM BKN050 WS015/22040KT
  TEMPO 2400/2403 -SHRA
  FM240500 35013G19KT P6SM SCT015 BKN020
  FM241000 33009KT P6SM SCT015 OVC020
  FM241400 32008KT P6SM SCT025 BKN250


KMEM 232045Z 2321/2424 19009KT P6SM FEW250
  FM240000 16005KT P6SM SKC


KMIA 232050Z 2321/2424 09008KT P6SM SCT030 SCT050
  FM240000 09003KT P6SM FEW025 SCT050
  FM241400 09013KT P6SM VCSH SCT030 SCT050


KMSP 232058Z 2321/2424 33009KT P6SM BKN025 BKN040
  FM240800 31007KT P6SM SCT025 BKN035
  FM241200 30006KT P6SM BKN250


KORD 232102Z 2321/2424 19009KT P6SM BKN080
  FM240000 02005KT P6SM VCSH BKN050 WS015/22040KT
  TEMPO 2400/2403 -SHRA
  FM240500 35013G19KT P6SM SCT015 BKN020
  FM241000 33009KT P6SM SCT015 OVC020
  FM241400 32008KT P6SM SCT025 BKN250


KPDX 232051Z 2321/2418 VRB04KT P6SM SCT050
  FM240100 05005KT P6SM SKC
  FM241000 VRB03KT 5SM BR SCT028
  FM241200 VRB02KT 2SM BR BKN010
  FM241700 VRB04KT 6SM BR SCT010


KPHL 232100Z 2321/2424 28008G18KT P6SM SKC
  FM232300 28006KT P6SM SKC
  FM240400 VRB03KT P6SM SKC
  FM241400 22006KT P6SM SCT250


KPHX 232049Z 2321/2424 26005KT P6SM SKC
  FM240600 09005KT P6SM SKC
  FM241700 07010G18KT P6SM SKC


KPIT 231720Z 2318/2424 27015G26KT P6SM SKC
  FM232200 25007KT P6SM SKC
  FM241600 22006KT P6SM BKN150


KSAN 232058Z 2321/2424 22006KT P6SM FEW200
  FM240000 VRB03KT P6SM SKC
  FM241400 VRB05KT P6SM SKC WS015/06025KT
  FM242000 30009KT P6SM SKC


KSEA 232130Z 2322/2424 35007KT P6SM BKN250
  FM240900 04005KT 5SM BR OVC250
  FM241200 10003KT 1SM BR SCT004 OVC250
  FM241800 04005KT P6SM BKN250


KSFO 232107Z 2321/2424 06004KT P6SM SKC
  FM232230 30013KT P6SM SKC
  FM240300 30008KT P6SM SKC
  FM240800 03007KT P6SM SKC
  FM241000 06007G15KT P6SM SKC
  FM241800 04005KT P6SM SKC


KSLC 232131Z 2322/2424 34015KT P6SM SCT070
  FM240100 33006KT P6SM SCT070 SCT120
  FM241000 15004KT P6SM SKC
  FM241700 34005KT P6SM FEW120


KSTL 232110Z 2321/2424 19015G25KT P6SM SCT150
  FM240200 21009KT P6SM BKN120
  FM240500 28008KT P6SM OVC100
  FM241400 01008KT 6SM -RA SCT025 OVC040


KTPA 232057Z 2321/2424 04010KT P6SM FEW040 SCT250
  FM240400 06006KT P6SM SCT040 SCT250
  FM241000 05005KT P6SM BKN035
  FM241500 08008KT P6SM SCT040 BKN250